Time;durP1;ratioP1;P1;durP2;ratioP2;P2;SDS_P1;SDS_P2;PMS_P1;PMS_P2;Temp;Humidity;BMP_temperature;BMP_pressure;BME280_temperature;BME280_humidity;BME280_pressure;Samples;Min_cycle;Max_cycle;Signal;HPM_P1;HPM_P2
2021/03/24 00:00:16;;;;;;;58.38;35.88;;;5.80;99.90;;;;;;4975510;28;20122;-77
2021/03/24 00:02:44;;;;;;;54.63;36.05;;;5.70;99.90;;;;;;4977047;28;20133;-75
2021/03/24 00:05:12;;;;;;;54.47;35.72;;;5.70;99.90;;;;;;4975410;28;20050;-75
2021/03/24 00:07:39;;;;;;;64.75;35.97;;;5.70;99.90;;;;;;4975126;28;20130;-76
2021/03/24 00:10:07;;;;;;;54.63;34.72;;;5.70;99.90;;;;;;4975285;28;20137;-75
2021/03/24 00:12:35;;;;;;;56.05;34.80;;;5.60;99.90;;;;;;4977151;28;20141;-75
2021/03/24 00:15:01;;;;;;;55.58;34.80;;;5.60;99.90;;;;;;4995994;28;20051;-76
2021/03/24 00:17:27;;;;;;;53.88;35.35;;;5.50;99.90;;;;;;4997022;28;20058;-77
2021/03/24 00:19:55;;;;;;;50.40;33.00;;;5.50;99.90;;;;;;4988121;28;20097;-75
2021/03/24 00:22:21;;;;;;;59.83;34.30;;;5.40;99.90;;;;;;4975114;28;20093;-75
2021/03/24 00:24:47;;;;;;;55.90;34.00;;;5.50;99.90;;;;;;4975638;28;20070;-74
2021/03/24 00:27:14;;;;;;;48.90;33.20;;;5.50;99.90;;;;;;4975261;28;20133;-75
2021/03/24 00:29:40;;;;;;;56.70;32.88;;;5.50;99.90;;;;;;4975100;28;20101;-75
2021/03/24 00:32:07;;;;;;;58.58;33.47;;;5.50;99.90;;;;;;4974874;28;20086;-75
2021/03/24 00:34:34;;;;;;;52.20;32.33;;;5.50;99.90;;;;;;4975489;28;20106;-74
2021/03/24 00:37:01;;;;;;;52.58;32.35;;;5.50;99.90;;;;;;4974708;28;20136;-76
2021/03/24 00:39:27;;;;;;;52.88;32.97;;;5.60;99.90;;;;;;4974789;28;20446;-75
2021/03/24 00:41:54;;;;;;;53.83;32.78;;;5.50;99.90;;;;;;4975007;28;20082;-75
2021/03/24 00:44:20;;;;;;;55.30;32.90;;;5.50;99.90;;;;;;4974976;28;20134;-75
2021/03/24 00:46:47;;;;;;;54.95;33.25;;;5.50;99.90;;;;;;4975047;28;20130;-75
2021/03/24 00:49:13;;;;;;;61.20;34.78;;;5.50;99.90;;;;;;4974997;28;20138;-74
2021/03/24 00:51:40;;;;;;;56.65;34.38;;;5.50;99.90;;;;;;4974597;28;20503;-75
2021/03/24 00:54:07;;;;;;;59.42;33.88;;;5.40;99.90;;;;;;4974967;28;20550;-75
2021/03/24 00:56:33;;;;;;;52.08;32.75;;;5.30;99.90;;;;;;4973809;28;20114;-75
2021/03/24 00:59:00;;;;;;;56.13;33.92;;;5.30;99.90;;;;;;4974385;28;20134;-72
2021/03/24 01:01:26;;;;;;;60.55;34.50;;;5.30;99.90;;;;;;4974385;28;20128;-75
2021/03/24 01:03:52;;;;;;;54.88;34.58;;;5.30;99.90;;;;;;4975021;28;20061;-75
2021/03/24 01:06:19;;;;;;;61.85;35.65;;;5.30;99.90;;;;;;4974255;28;20097;-75
2021/03/24 01:08:45;;;;;;;60.03;35.72;;;5.30;99.90;;;;;;4974278;28;20073;-75
2021/03/24 01:11:12;;;;;;;57.40;36.45;;;5.30;99.90;;;;;;4973738;28;20082;-74
2021/03/24 01:13:39;;;;;;;54.20;33.47;;;5.40;99.90;;;;;;4974560;28;20082;-74
2021/03/24 01:16:06;;;;;;;54.20;33.30;;;5.40;99.90;;;;;;4973984;28;20130;-72
2021/03/24 01:18:32;;;;;;;59.55;34.72;;;5.30;99.90;;;;;;4973877;28;20146;-74
2021/03/24 01:20:59;;;;;;;58.55;34.45;;;5.30;99.90;;;;;;4974429;28;20445;-76
2021/03/24 01:23:25;;;;;;;56.72;33.45;;;5.30;99.90;;;;;;4974367;28;20509;-75
2021/03/24 01:25:51;;;;;;;58.42;33.05;;;5.30;99.90;;;;;;4974535;28;20566;-74
2021/03/24 01:28:21;;;;;;;54.72;32.65;;;5.30;99.90;;;;;;4973476;28;20129;-75
2021/03/24 01:30:47;;;;;;;54.40;34.42;;;5.40;99.90;;;;;;4974222;28;20142;-75
2021/03/24 01:33:14;;;;;;;56.10;32.67;;;5.30;99.90;;;;;;4973945;28;20046;-74
2021/03/24 01:35:41;;;;;;;58.88;35.25;;;5.30;99.90;;;;;;4974233;28;20133;-75
2021/03/24 01:38:08;;;;;;;54.45;32.83;;;5.30;99.90;;;;;;4974336;28;20043;-76
2021/03/24 01:40:36;;;;;;;52.30;32.03;;;5.20;99.90;;;;;;4973966;28;20051;-73
2021/03/24 01:43:08;;;;;;;53.30;32.83;;;5.10;99.90;;;;;;4973740;28;20562;-76
2021/03/24 01:46:16;;;;;;;61.50;35.08;;;5.00;99.90;;;;;;4973837;28;20138;-75
2021/03/24 01:48:44;;;;;;;58.17;34.00;;;4.90;99.90;;;;;;4973543;28;20094;-75
2021/03/24 01:51:10;;;;;;;54.80;33.40;;;4.80;99.90;;;;;;4973867;28;20133;-76
2021/03/24 01:53:39;;;;;;;56.55;33.00;;;4.90;99.90;;;;;;4973500;28;20173;-75
2021/03/24 01:56:08;;;;;;;62.83;34.40;;;4.80;99.90;;;;;;4974038;28;20153;-75
2021/03/24 01:58:35;;;;;;;56.75;34.15;;;4.80;99.90;;;;;;4973748;28;20134;-76
2021/03/24 02:01:04;;;;;;;57.03;35.08;;;4.90;99.90;;;;;;4974129;28;20472;-76
2021/03/24 02:03:31;;;;;;;59.20;36.53;;;4.80;99.90;;;;;;4973924;28;20135;-76
2021/03/24 02:06:01;;;;;;;67.93;36.88;;;4.80;99.90;;;;;;4974259;28;20142;-75
2021/03/24 02:08:32;;;;;;;59.20;34.70;;;4.80;99.90;;;;;;4974838;28;20047;-75
2021/03/24 02:11:07;;;;;;;66.75;37.15;;;4.80;99.90;;;;;;4974276;28;20078;-76
2021/03/24 02:13:40;;;;;;;58.90;34.78;;;4.70;99.90;;;;;;4974504;28;20089;-76
2021/03/24 02:16:14;;;;;;;62.47;35.53;;;4.60;99.90;;;;;;4974295;28;20478;-73
2021/03/24 02:18:41;;;;;;;59.92;34.35;;;4.60;99.90;;;;;;4974052;28;20137;-75
2021/03/24 02:21:15;;;;;;;55.78;32.92;;;4.60;99.90;;;;;;4973828;28;20050;-75
2021/03/24 02:24:04;;;;;;;57.80;35.17;;;4.60;99.90;;;;;;4977300;28;20522;-74
2021/03/24 02:26:39;;;;;;;62.20;33.72;;;4.60;99.90;;;;;;4976924;28;20468;-75
2021/03/24 02:29:11;;;;;;;59.55;33.33;;;4.60;99.90;;;;;;4977046;28;20145;-75
2021/03/24 02:31:39;;;;;;;61.70;33.63;;;4.60;99.90;;;;;;4976939;28;20201;-76
2021/03/24 02:34:09;;;;;;;59.78;33.15;;;4.60;99.90;;;;;;4977089;28;20080;-75
2021/03/24 02:36:39;;;;;;;57.75;33.38;;;4.50;99.90;;;;;;4976533;28;20108;-75
2021/03/24 02:39:09;;;;;;;60.17;33.45;;;4.60;99.90;;;;;;4977269;28;20579;-75
2021/03/24 02:41:37;;;;;;;56.60;31.42;;;4.60;99.90;;;;;;4976716;28;20090;-76
2021/03/24 02:44:04;;;;;;;57.90;32.80;;;4.40;99.90;;;;;;4977425;28;20116;-75
2021/03/24 02:46:31;;;;;;;57.10;32.83;;;4.40;99.90;;;;;;4976640;28;20125;-74
2021/03/24 02:49:01;;;;;;;55.47;32.35;;;4.30;99.90;;;;;;4976866;28;20051;-75
2021/03/24 02:51:28;;;;;;;59.33;32.45;;;4.30;99.90;;;;;;4976366;28;20167;-75
2021/03/24 02:53:54;;;;;;;64.65;32.58;;;4.20;99.90;;;;;;4976396;28;20081;-75
2021/03/24 02:56:21;;;;;;;54.45;32.05;;;4.10;99.90;;;;;;4976525;28;20410;-75
2021/03/24 02:58:50;;;;;;;56.00;31.60;;;4.10;99.90;;;;;;4976625;28;20138;-75
2021/03/24 03:01:21;;;;;;;54.50;32.53;;;4.00;99.90;;;;;;4976738;28;20133;-76
2021/03/24 03:03:52;;;;;;;54.83;32.95;;;4.00;99.90;;;;;;4976881;28;20125;-76
2021/03/24 03:06:21;;;;;;;56.47;31.23;;;4.00;99.90;;;;;;4976087;28;20133;-75
2021/03/24 03:08:51;;;;;;;50.67;29.75;;;4.00;99.90;;;;;;4976439;28;20053;-75
2021/03/24 03:11:23;;;;;;;57.38;33.03;;;3.90;99.90;;;;;;4977681;28;20085;-74
2021/03/24 03:13:56;;;;;;;59.35;32.90;;;3.90;99.90;;;;;;4977470;28;20068;-75
2021/03/24 03:16:30;;;;;;;60.55;33.95;;;3.90;99.90;;;;;;4976725;28;20292;-75
2021/03/24 03:19:04;;;;;;;56.50;31.48;;;3.90;99.90;;;;;;4976647;28;20129;-72
2021/03/24 03:21:35;;;;;;;56.33;31.25;;;3.80;99.90;;;;;;4976653;28;20145;-74
2021/03/24 03:24:04;;;;;;;55.10;32.15;;;3.70;99.90;;;;;;4976352;28;20138;-73
2021/03/24 03:26:33;;;;;;;58.05;31.70;;;3.70;99.90;;;;;;4976674;28;20130;-75
2021/03/24 03:29:08;;;;;;;60.58;31.48;;;3.70;99.90;;;;;;4976141;28;20129;-73
2021/03/24 03:31:37;;;;;;;55.20;30.60;;;3.80;99.90;;;;;;4975990;28;20130;-74
2021/03/24 03:34:08;;;;;;;58.05;31.15;;;3.70;99.90;;;;;;4975503;28;20565;-74
2021/03/24 03:36:38;;;;;;;57.63;32.00;;;3.70;99.90;;;;;;4976172;28;20106;-75
2021/03/24 03:39:05;;;;;;;54.80;31.48;;;3.70;99.90;;;;;;4976584;28;20146;-74
2021/03/24 03:41:32;;;;;;;52.40;30.88;;;3.70;99.90;;;;;;4976733;28;20138;-75
2021/03/24 03:44:00;;;;;;;58.33;31.77;;;3.70;99.90;;;;;;4976209;28;20097;-74
2021/03/24 03:46:31;;;;;;;55.28;31.42;;;3.70;99.90;;;;;;4976506;28;20197;-75
2021/03/24 03:48:58;;;;;;;57.05;32.53;;;3.70;99.90;;;;;;4976998;28;20064;-74
2021/03/24 03:51:36;;;;;;;58.83;31.77;;;3.60;99.90;;;;;;4976199;28;20090;-74
2021/03/24 03:54:11;;;;;;;60.95;32.28;;;3.60;99.90;;;;;;4976582;28;20130;-75
2021/03/24 03:56:45;;;;;;;62.00;30.25;;;3.60;99.90;;;;;;4976087;28;20533;-75
2021/03/24 03:59:15;;;;;;;60.40;32.80;;;3.60;99.90;;;;;;4976686;28;20149;-74
2021/03/24 04:01:47;;;;;;;57.65;30.33;;;3.60;99.90;;;;;;4976085;28;20057;-75
2021/03/24 04:04:18;;;;;;;52.88;31.23;;;3.70;99.90;;;;;;4976603;28;20181;-75
2021/03/24 04:06:48;;;;;;;56.50;30.92;;;3.70;99.90;;;;;;4976568;28;20134;-75
2021/03/24 04:09:15;;;;;;;57.20;31.05;;;3.80;99.90;;;;;;4976218;28;20142;-74
2021/03/24 04:11:44;;;;;;;56.67;31.52;;;3.80;99.90;;;;;;4976066;28;20138;-74
2021/03/24 04:14:15;;;;;;;56.85;31.60;;;3.70;99.90;;;;;;4975221;28;20057;-77
2021/03/24 04:16:43;;;;;;;56.60;30.45;;;3.80;99.90;;;;;;4974924;28;20074;-76
2021/03/24 04:19:11;;;;;;;61.13;30.98;;;3.80;99.90;;;;;;4975357;28;20077;-76
2021/03/24 04:21:40;;;;;;;57.60;31.88;;;3.80;99.90;;;;;;4975305;28;20220;-76
2021/03/24 04:24:16;;;;;;;60.75;33.50;;;3.80;99.90;;;;;;4975254;28;20089;-75
2021/03/24 04:26:46;;;;;;;56.75;31.13;;;3.70;99.90;;;;;;4975923;28;20134;-76
2021/03/24 04:29:17;;;;;;;58.67;31.52;;;3.60;99.90;;;;;;4976559;28;20054;-75
2021/03/24 04:34:12;;;;;;;59.65;32.22;;;3.60;99.90;;;;;;5038222;23;20049;-79
2021/03/24 04:36:42;;;;;;;56.92;31.55;;;3.50;99.90;;;;;;5019120;28;20109;-79
2021/03/24 04:39:16;;;;;;;61.05;32.60;;;3.50;99.90;;;;;;5020819;28;20137;-79
2021/03/24 04:41:46;;;;;;;62.80;32.38;;;3.50;99.90;;;;;;5019294;28;20525;-79
2021/03/24 04:44:17;;;;;;;53.22;31.08;;;3.50;99.90;;;;;;4998527;28;20077;-78
2021/03/24 04:46:46;;;;;;;55.85;30.60;;;3.40;99.90;;;;;;4996358;28;20129;-77
2021/03/24 04:49:15;;;;;;;58.38;31.48;;;3.40;99.90;;;;;;4999507;28;20046;-79
2021/03/24 04:51:42;;;;;;;59.13;31.17;;;3.40;99.90;;;;;;4996791;28;20050;-77
2021/03/24 04:54:15;;;;;;;58.08;31.48;;;3.40;99.90;;;;;;4997676;28;20085;-78
2021/03/24 04:56:45;;;;;;;45.45;25.80;;;3.30;99.90;;;;;;4996258;28;20133;-77
2021/03/24 04:59:17;;;;;;;56.35;33.00;;;3.30;99.90;;;;;;4996060;28;20050;-77
2021/03/24 05:01:45;;;;;;;60.20;32.53;;;3.20;99.90;;;;;;4996425;28;20137;-76
2021/03/24 05:04:20;;;;;;;66.55;33.90;;;3.10;99.90;;;;;;4996666;28;20470;-77
2021/03/24 05:06:51;;;;;;;58.30;31.48;;;3.10;99.90;;;;;;4997125;28;20095;-78
2021/03/24 05:09:18;;;;;;;56.08;31.50;;;3.10;99.90;;;;;;4997731;28;20077;-79
2021/03/24 05:11:53;;;;;;;59.72;32.00;;;3.10;99.90;;;;;;5000170;28;20054;-79
2021/03/24 05:14:27;;;;;;;61.58;32.45;;;3.10;99.90;;;;;;4999233;28;20117;-79
2021/03/24 05:17:16;;;;;;;59.63;31.23;;;3.10;99.90;;;;;;4998863;28;20085;-79
2021/03/24 05:19:44;;;;;;;59.20;31.60;;;3.20;99.90;;;;;;4998795;28;20129;-78
2021/03/24 05:22:20;;;;;;;62.25;32.83;;;3.10;99.90;;;;;;4998911;28;20541;-80
2021/03/24 05:24:48;;;;;;;64.63;33.90;;;3.20;99.90;;;;;;4998002;28;20133;-78
2021/03/24 05:27:19;;;;;;;65.53;34.83;;;3.20;99.90;;;;;;4997302;28;20169;-78
2021/03/24 05:29:52;;;;;;;61.90;34.08;;;3.20;99.90;;;;;;4997415;28;20082;-78
2021/03/24 05:32:22;;;;;;;66.07;33.13;;;3.20;99.90;;;;;;4996434;28;20047;-78
2021/03/24 05:34:53;;;;;;;63.30;34.72;;;3.20;99.90;;;;;;4998145;28;20085;-78
2021/03/24 05:37:23;;;;;;;65.15;33.92;;;3.20;99.90;;;;;;4999606;28;20074;-78
2021/03/24 05:39:51;;;;;;;59.92;32.78;;;3.20;99.90;;;;;;5003391;28;20426;-77
2021/03/24 05:42:29;;;;;;;63.22;33.03;;;3.30;99.90;;;;;;5001845;28;20073;-77
2021/03/24 05:45:08;;;;;;;62.30;32.88;;;3.30;99.90;;;;;;4997836;28;20137;-78
2021/03/24 05:47:53;;;;;;;67.03;34.10;;;3.20;99.90;;;;;;4996806;28;20050;-79
2021/03/24 05:50:47;;;;;;;64.85;33.75;;;3.20;99.90;;;;;;4998723;28;20140;-78
2021/03/24 05:53:27;;;;;;;67.72;33.63;;;3.30;99.90;;;;;;4998117;28;20112;-78
2021/03/24 05:56:00;;;;;;;61.38;33.40;;;3.30;99.90;;;;;;4995894;28;20358;-79
2021/03/24 05:58:37;;;;;;;53.58;26.25;;;3.20;99.90;;;;;;4996964;28;20070;-79
2021/03/24 06:01:09;;;;;;;69.20;33.67;;;3.20;99.90;;;;;;4997179;28;20490;-78
2021/03/24 06:04:02;;;;;;;63.78;33.78;;;3.20;99.90;;;;;;4997552;28;20566;-79
2021/03/24 06:07:05;;;;;;;64.18;34.03;;;3.20;99.90;;;;;;4996608;28;20110;-79
2021/03/24 06:09:59;;;;;;;61.88;32.67;;;3.20;99.90;;;;;;4993837;28;20086;-78
2021/03/24 06:12:51;;;;;;;65.15;33.15;;;3.30;99.90;;;;;;5001891;28;20129;-79
2021/03/24 06:15:42;;;;;;;66.90;34.15;;;3.30;99.90;;;;;;5002682;28;20101;-79
2021/03/24 06:18:33;;;;;;;59.55;33.15;;;3.30;99.90;;;;;;5001025;28;20082;-79
2021/03/24 06:21:07;;;;;;;59.35;33.20;;;3.40;99.90;;;;;;4999464;28;20527;-78
2021/03/24 06:24:07;;;;;;;68.57;33.42;;;3.40;99.90;;;;;;5000067;28;20057;-78
2021/03/24 06:26:46;;;;;;;61.40;32.90;;;3.50;99.90;;;;;;4994806;28;20083;-78
2021/03/24 06:29:29;;;;;;;55.55;29.83;;;3.60;99.90;;;;;;4999994;28;20050;-78
2021/03/24 06:32:03;;;;;;;;;;;3.80;99.90;;;;;;5001446;28;20073;-80
2021/03/24 06:35:18;;;;;;;54.92;30.35;;;4.10;99.90;;;;;;4999292;28;20027;-80
2021/03/24 06:37:51;;;;;;;48.65;29.45;;;4.40;99.90;;;;;;5002292;28;20130;-79
2021/03/24 06:40:33;;;;;;;53.72;28.73;;;4.80;99.90;;;;;;5001682;28;20042;-79
2021/03/24 06:43:25;;;;;;;46.07;28.20;;;5.00;99.90;;;;;;4998462;28;20085;-79
2021/03/24 06:46:08;;;;;;;45.03;28.02;;;5.40;99.90;;;;;;5001931;28;20150;-78
2021/03/24 06:48:56;;;;;;;37.50;22.02;;;5.70;99.90;;;;;;4999117;28;20038;-79
2021/03/24 06:51:59;;;;;;;44.80;28.35;;;6.00;99.90;;;;;;4998235;28;20573;-78
2021/03/24 06:55:03;;;;;;;47.70;27.20;;;6.30;99.90;;;;;;4996485;28;20073;-81
2021/03/24 06:57:54;;;;;;;52.22;28.70;;;6.70;99.90;;;;;;4996260;28;20038;-80
2021/03/24 07:00:34;;;;;;;44.95;27.95;;;7.00;99.90;;;;;;4999383;28;20425;-80
2021/03/24 07:03:26;;;;;;;49.08;28.38;;;7.30;99.90;;;;;;4999683;28;20055;-80
2021/03/24 07:06:16;;;;;;;47.33;27.65;;;7.50;99.90;;;;;;5002733;28;20058;-80
2021/03/24 07:09:07;;;;;;;43.85;27.45;;;7.70;99.90;;;;;;5000902;28;20073;-81
2021/03/24 07:11:53;;;;;;;45.15;28.00;;;8.00;99.90;;;;;;4999053;28;20054;-76
2021/03/24 07:15:14;;;;;;;43.85;26.33;;;8.40;99.90;;;;;;4998319;28;20132;-80
2021/03/24 07:18:34;;;;;;;44.42;28.08;;;9.10;99.90;;;;;;5019393;28;20056;-80
2021/03/24 07:21:27;;;;;;;42.42;27.27;;;9.60;99.90;;;;;;4984496;28;20498;-79
2021/03/24 07:24:21;;;;;;;42.05;26.75;;;9.70;99.90;;;;;;5008050;28;20201;-79
2021/03/24 07:27:00;;;;;;;41.28;26.55;;;10.00;99.90;;;;;;5021858;28;20116;-81
2021/03/24 07:29:56;;;;;;;37.72;24.98;;;10.30;99.90;;;;;;4999130;28;20078;-79
2021/03/24 07:32:33;;;;;;;42.38;27.48;;;10.40;99.90;;;;;;4997511;28;20051;-79
2021/03/24 07:35:21;;;;;;;40.53;26.50;;;10.50;99.90;;;;;;4997022;28;20082;-79
2021/03/24 07:38:08;;;;;;;42.85;27.00;;;10.50;99.90;;;;;;5003275;28;20518;-79
2021/03/24 07:41:06;;;;;;;42.35;26.25;;;10.70;99.90;;;;;;5002926;28;20529;-80
2021/03/24 07:43:49;;;;;;;38.40;25.60;;;11.00;99.90;;;;;;4982271;28;20085;-80
2021/03/24 07:46:27;;;;;;;38.85;26.10;;;11.30;99.90;;;;;;4986162;28;20043;-80
2021/03/24 07:49:15;;;;;;;40.83;27.20;;;11.70;99.90;;;;;;5003181;28;20193;-79
2021/03/24 07:52:19;;;;;;;40.40;26.90;;;11.80;99.90;;;;;;5002643;28;20134;-80
2021/03/24 07:54:53;;;;;;;37.83;25.30;;;11.70;99.90;;;;;;5004256;28;20133;-80
2021/03/24 07:57:31;;;;;;;41.45;25.92;;;12.00;99.90;;;;;;5003155;28;20469;-80
2021/03/24 08:00:11;;;;;;;38.92;25.70;;;12.30;99.90;;;;;;5004741;28;20046;-80
2021/03/24 08:02:54;;;;;;;43.47;26.17;;;12.60;99.90;;;;;;5003555;28;20077;-78
2021/03/24 08:05:47;;;;;;;39.85;26.00;;;12.60;99.90;;;;;;5003061;28;20146;-79
2021/03/24 08:08:19;;;;;;;40.05;25.48;;;12.60;99.90;;;;;;5004246;28;20083;-80
2021/03/24 08:10:55;;;;;;;40.28;25.90;;;12.80;99.90;;;;;;5005413;28;20077;-79
2021/03/24 08:13:42;;;;;;;41.78;26.65;;;12.60;99.90;;;;;;5006264;28;20066;-80
2021/03/24 08:16:46;;;;;;;40.38;27.27;;;12.50;99.90;;;;;;5005006;28;20073;-80
2021/03/24 08:19:48;;;;;;;47.80;28.35;;;12.40;99.90;;;;;;5006984;28;20118;-81
2021/03/24 08:22:35;;;;;;;43.63;27.08;;;11.90;99.90;;;;;;5005324;28;20050;-78
2021/03/24 08:25:18;;;;;;;47.65;27.27;;;11.80;99.90;;;;;;5004273;28;20077;-79
2021/03/24 08:27:52;;;;;;;43.78;26.67;;;12.00;99.90;;;;;;5009444;28;20105;-82
2021/03/24 08:30:24;;;;;;;44.63;27.15;;;12.10;99.90;;;;;;5008575;28;20091;-82
2021/03/24 08:33:20;;;;;;;43.10;26.33;;;12.30;99.90;;;;;;5004568;28;20115;-81
2021/03/24 08:36:07;;;;;;;45.83;27.63;;;12.30;99.90;;;;;;5005861;28;20114;-81
2021/03/24 08:39:01;;;;;;;41.90;26.90;;;12.20;99.90;;;;;;5006941;28;20081;-81
2021/03/24 08:42:21;;;;;;;43.67;27.65;;;12.10;99.90;;;;;;5005051;28;20110;-81
2021/03/24 08:44:53;;;;;;;44.38;27.38;;;12.10;99.90;;;;;;5005286;28;20100;-81
2021/03/24 08:47:22;;;;;;;45.03;27.02;;;12.30;99.90;;;;;;5005323;28;20097;-80
2021/03/24 08:49:52;;;;;;;46.08;27.80;;;12.10;99.90;;;;;;5005744;28;20490;-81
2021/03/24 08:52:31;;;;;;;40.65;26.90;;;12.30;99.90;;;;;;5004093;28;20050;-81
2021/03/24 08:55:18;;;;;;;45.38;27.38;;;12.50;99.90;;;;;;5006513;28;20107;-81
2021/03/24 08:58:06;;;;;;;42.70;25.60;;;13.00;99.90;;;;;;5004870;28;20133;-80
2021/03/24 09:00:47;;;;;;;42.22;27.33;;;13.00;99.90;;;;;;5004313;28;20082;-80
2021/03/24 09:03:35;;;;;;;46.03;27.23;;;12.80;99.90;;;;;;5005161;28;20081;-80
2021/03/24 09:06:09;;;;;;;43.03;27.35;;;13.10;99.90;;;;;;5004906;28;20506;-79
2021/03/24 09:08:39;;;;;;;43.45;27.52;;;13.10;99.90;;;;;;4997736;28;20463;-77
2021/03/24 09:11:29;;;;;;;47.83;28.50;;;12.90;99.90;;;;;;4994586;28;20518;-78
2021/03/24 09:14:06;;;;;;;48.13;28.40;;;12.80;99.90;;;;;;5002571;28;20114;-80
2021/03/24 09:17:08;;;;;;;43.75;28.63;;;12.70;99.90;;;;;;5004620;28;20533;-78
2021/03/24 09:20:24;;;;;;;47.00;28.17;;;12.70;99.90;;;;;;5005065;28;20050;-78
2021/03/24 09:23:09;;;;;;;46.33;29.27;;;12.80;99.90;;;;;;4998641;28;20082;-81
2021/03/24 09:25:41;;;;;;;44.83;28.58;;;13.00;99.90;;;;;;4999590;28;20081;-79
2021/03/24 09:28:45;;;;;;;47.75;28.77;;;13.10;99.90;;;;;;4998494;28;20111;-79
2021/03/24 09:31:45;;;;;;;48.70;28.73;;;13.20;99.90;;;;;;4997048;28;20070;-81
2021/03/24 09:34:23;;;;;;;51.00;29.88;;;13.10;99.90;;;;;;4999238;28;20092;-80
2021/03/24 09:36:59;;;;;;;54.30;29.15;;;12.90;99.90;;;;;;4997844;28;20057;-78
2021/03/24 09:39:35;;;;;;;47.05;29.05;;;13.00;99.90;;;;;;4999262;28;20146;-78
2021/03/24 09:42:07;;;;;;;43.88;27.98;;;12.90;99.90;;;;;;4998729;28;20141;-78
2021/03/24 09:44:39;;;;;;;49.38;29.05;;;12.90;99.90;;;;;;5004401;28;20054;-80
2021/03/24 09:47:21;;;;;;;48.45;28.60;;;13.00;99.90;;;;;;5002091;28;20065;-78
2021/03/24 09:49:58;;;;;;;44.13;27.95;;;13.10;99.90;;;;;;4999520;28;20117;-81
2021/03/24 09:52:30;;;;;;;52.22;29.15;;;13.10;99.90;;;;;;4997459;28;20081;-80
2021/03/24 09:55:02;;;;;;;44.03;29.27;;;13.20;99.90;;;;;;4997201;28;20173;-79
2021/03/24 09:57:41;;;;;;;48.67;29.77;;;13.20;99.90;;;;;;4997391;28;20168;-80
2021/03/24 10:00:12;;;;;;;47.53;27.30;;;13.20;99.90;;;;;;4996657;28;20588;-79
2021/03/24 10:02:48;;;;;;;53.13;28.77;;;13.20;99.90;;;;;;4995184;28;20501;-81
2021/03/24 10:05:16;;;;;;;48.17;27.42;;;13.30;99.90;;;;;;4998869;28;20052;-80
2021/03/24 10:07:59;;;;;;;48.70;27.65;;;13.50;99.90;;;;;;4998428;28;20185;-81
2021/03/24 10:10:30;;;;;;;48.30;27.92;;;13.50;99.90;;;;;;4999444;28;20097;-80
2021/03/24 10:13:02;;;;;;;44.58;26.73;;;13.60;99.90;;;;;;4999692;28;20133;-81
2021/03/24 10:15:37;;;;;;;45.70;28.23;;;13.60;99.90;;;;;;4999781;28;20054;-81
2021/03/24 10:18:09;;;;;;;45.00;26.38;;;13.50;99.90;;;;;;4999781;28;20133;-81
2021/03/24 10:20:41;;;;;;;45.75;27.70;;;13.50;99.90;;;;;;4999845;28;20129;-80
2021/03/24 10:23:15;;;;;;;46.88;27.75;;;13.60;99.90;;;;;;4999298;28;20503;-80
2021/03/24 10:25:44;;;;;;;47.63;28.52;;;13.60;99.90;;;;;;4999208;28;20086;-83
2021/03/24 10:28:15;;;;;;;51.13;28.27;;;13.70;99.90;;;;;;4998643;28;20175;-81
2021/03/24 10:30:43;;;;;;;60.33;27.95;;;13.80;99.90;;;;;;4999155;28;20133;-80
2021/03/24 10:33:31;;;;;;;47.90;27.67;;;14.00;99.90;;;;;;5015676;23;20126;-82
2021/03/24 10:36:04;;;;;;;51.78;26.90;;;14.30;99.90;;;;;;5013026;28;20070;-81
2021/03/24 10:38:42;;;;;;;48.72;28.98;;;14.50;99.90;;;;;;5021630;28;20068;-84
2021/03/24 10:41:38;;;;;;;62.45;28.75;;;14.50;99.90;;;;;;5025803;28;20033;-82
2021/03/24 10:44:13;;;;;;;49.88;26.80;;;14.70;99.90;;;;;;5012102;28;20117;-84
2021/03/24 10:46:44;;;;;;;45.20;27.63;;;14.80;99.90;;;;;;5024281;28;20054;-83
2021/03/24 10:49:18;;;;;;;48.45;28.50;;;15.00;99.90;;;;;;5024557;28;20054;-83
2021/03/24 10:51:57;;;;;;;51.83;29.73;;;15.00;99.90;;;;;;5023499;28;20111;-84
2021/03/24 10:54:28;;;;;;;43.30;25.77;;;15.10;99.90;;;;;;5023976;28;20074;-84
2021/03/24 10:57:31;;;;;;;46.70;27.15;;;15.20;99.90;;;;;;5023921;28;20184;-84
2021/03/24 11:00:07;;;;;;;44.58;23.75;;;15.30;99.90;;;;;;5024299;28;20081;-84
2021/03/24 11:02:39;;;;;;;44.20;24.45;;;15.20;99.90;;;;;;5023474;28;20514;-83
2021/03/24 11:05:10;;;;;;;44.97;25.13;;;15.20;99.90;;;;;;5022813;28;20490;-84
2021/03/24 11:07:42;;;;;;;42.42;26.35;;;15.30;99.90;;;;;;5022704;28;20092;-83
2021/03/24 11:10:48;;;;;;;55.33;28.05;;;15.40;99.90;;;;;;5022622;28;20054;-85
2021/03/24 11:13:27;;;;;;;53.13;29.65;;;15.50;99.90;;;;;;4980888;28;20105;-83
2021/03/24 11:16:14;;;;;;;54.58;29.02;;;15.40;99.90;;;;;;5022835;28;20050;-83
2021/03/24 11:18:44;;;;;;;62.65;30.95;;;15.40;99.90;;;;;;5028264;28;20046;-84
2021/03/24 11:21:48;;;;;;;54.33;31.25;;;15.50;99.90;;;;;;5026817;28;20570;-83
2021/03/24 11:24:25;;;;;;;53.08;30.13;;;15.60;99.90;;;;;;5011673;28;20080;-83
2021/03/24 11:27:13;;;;;;;53.63;29.90;;;15.70;99.90;;;;;;5021079;28;20494;-85
2021/03/24 11:29:48;;;;;;;52.53;30.02;;;15.40;99.90;;;;;;5018057;28;20109;-81
2021/03/24 11:32:51;;;;;;;48.13;28.48;;;15.30;99.90;;;;;;5002645;28;20082;-85
2021/03/24 11:35:22;;;;;;;53.85;30.45;;;15.40;99.90;;;;;;4980353;28;20499;-81
2021/03/24 11:37:56;;;;;;;56.00;30.27;;;15.50;99.90;;;;;;5000738;28;20074;-83
2021/03/24 11:40:38;;;;;;;63.53;30.67;;;15.60;99.90;;;;;;5000525;28;20135;-84
2021/03/24 11:43:09;;;;;;;56.50;30.67;;;15.70;99.90;;;;;;4998948;28;20137;-85
2021/03/24 11:45:38;;;;;;;55.88;30.75;;;15.80;99.90;;;;;;4999333;28;20057;-83
2021/03/24 11:48:31;;;;;;;55.95;32.00;;;15.90;99.90;;;;;;5003233;28;20050;-83
2021/03/24 11:51:05;;;;;;;;;;;15.90;99.90;;;;;;5003411;28;20533;-83
2021/03/24 11:53:42;;;;;;;;;;;15.80;99.90;;;;;;5001118;28;19945;-83
2021/03/24 11:56:20;;;;;;;56.88;30.60;;;15.70;99.90;;;;;;5001291;28;19961;-83
2021/03/24 11:58:54;;;;;;;49.15;28.20;;;15.60;99.90;;;;;;5002155;28;20082;-83
2021/03/24 12:01:43;;;;;;;46.90;27.40;;;15.80;99.90;;;;;;5003095;28;20755;-83
2021/03/24 12:04:45;;;;;;;51.33;28.77;;;16.00;99.90;;;;;;5003072;28;20050;-85
2021/03/24 12:07:22;;;;;;;50.53;29.10;;;16.20;99.90;;;;;;4997361;28;20557;-83
2021/03/24 12:09:48;;;;;;;55.95;32.40;;;16.30;99.90;;;;;;5001285;28;20065;-83
2021/03/24 12:12:20;;;;;;;56.17;31.25;;;16.30;99.90;;;;;;5002528;28;20053;-84
2021/03/24 12:15:03;;;;;;;56.38;31.08;;;16.40;99.90;;;;;;5000949;28;20054;-82
2021/03/24 12:17:30;;;;;;;;;;;16.40;99.90;;;;;;5002001;28;20202;-83
2021/03/24 12:20:18;;;;;;;54.08;30.08;;;16.40;99.90;;;;;;5000764;28;20016;-84
2021/03/24 12:22:51;;;;;;;57.65;31.38;;;16.40;99.90;;;;;;4999197;28;20050;-82
2021/03/24 12:25:20;;;;;;;51.30;30.63;;;16.40;99.90;;;;;;5002282;28;20061;-84
2021/03/24 12:27:49;;;;;;;56.35;31.80;;;16.40;99.90;;;;;;5001279;28;20093;-84
2021/03/24 12:30:25;;;;;;;59.90;30.15;;;16.30;99.90;;;;;;5001905;28;20523;-84
2021/03/24 12:32:52;;;;;;;50.88;28.92;;;16.50;99.90;;;;;;5006722;28;20086;-86
2021/03/24 12:35:22;;;;;;;52.40;29.38;;;16.50;99.90;;;;;;5011474;28;20046;-84
2021/03/24 12:37:52;;;;;;;58.03;29.10;;;16.40;99.90;;;;;;5003431;28;20097;-83
2021/03/24 12:40:23;;;;;;;55.97;29.38;;;16.30;99.90;;;;;;5004029;28;20057;-83
2021/03/24 12:42:51;;;;;;;57.00;30.05;;;16.30;99.90;;;;;;5003304;28;20526;-82
2021/03/24 12:45:36;;;;;;;51.72;28.95;;;16.40;99.90;;;;;;5001856;28;20197;-83
2021/03/24 12:48:09;;;;;;;52.25;31.20;;;16.50;99.90;;;;;;5001295;28;20043;-83
2021/03/24 12:50:39;;;;;;;48.13;27.73;;;16.50;99.90;;;;;;5002693;28;20061;-83
2021/03/24 12:53:17;;;;;;;52.17;30.42;;;16.60;99.90;;;;;;5002356;28;20093;-81
2021/03/24 12:55:44;;;;;;;54.70;29.40;;;16.60;99.90;;;;;;5006809;28;20050;-83
2021/03/24 12:58:27;;;;;;;49.58;29.08;;;16.60;99.90;;;;;;5000982;28;20046;-83
2021/03/24 13:01:02;;;;;;;49.00;29.35;;;16.70;99.90;;;;;;5001959;28;20077;-84
2021/03/24 13:04:00;;;;;;;51.55;27.60;;;16.60;99.90;;;;;;5000733;28;20109;-86
2021/03/24 13:06:48;;;;;;;50.75;28.13;;;16.70;99.90;;;;;;5000891;28;20093;-84
2021/03/24 13:09:20;;;;;;;46.03;26.38;;;16.90;99.90;;;;;;5001504;28;20102;-84
2021/03/24 13:11:54;;;;;;;46.42;27.65;;;17.10;99.90;;;;;;5000574;28;20078;-83
2021/03/24 13:14:49;;;;;;;45.50;27.05;;;17.10;99.90;;;;;;5000867;28;20461;-83
2021/03/24 13:17:28;;;;;;;42.13;26.95;;;17.10;99.90;;;;;;5000635;28;20061;-84
2021/03/24 13:20:13;;;;;;;44.28;26.60;;;17.20;99.90;;;;;;5001637;28;20525;-84
2021/03/24 13:22:44;;;;;;;45.10;25.42;;;17.30;99.90;;;;;;5001154;28;20088;-82